Time;durP1;ratioP1;P1;durP2;ratioP2;P2;SDS_P1;SDS_P2;PMS_P1;PMS_P2;Temp;Humidity;BMP_temperature;BMP_pressure;BME280_temperature;BME280_humidity;BME280_pressure;Samples;Min_cycle;Max_cycle;Signal;HPM_P1;HPM_P2
2023/02/28 00:01:05;;;;;;;5.50;1.88;;;0.50;75.10;;;;;;4971688;28;93564;-73
2023/02/28 00:03:34;;;;;;;6.07;1.98;;;0.40;75.10;;;;;;4976582;28;92482;-73
2023/02/28 00:06:03;;;;;;;5.00;1.70;;;0.40;75.30;;;;;;4968751;28;93959;-73
2023/02/28 00:08:29;;;;;;;4.70;1.83;;;0.40;75.40;;;;;;4971958;28;93883;-72
2023/02/28 00:10:55;;;;;;;4.30;1.50;;;0.30;75.60;;;;;;4976072;28;94056;-73
2023/02/28 00:13:21;;;;;;;4.55;1.75;;;0.30;75.50;;;;;;4970709;28;93411;-72
2023/02/28 00:15:46;;;;;;;5.63;1.98;;;0.30;75.60;;;;;;4972047;28;93801;-72
2023/02/28 00:18:13;;;;;;;5.28;1.95;;;0.30;75.70;;;;;;4972501;28;92466;-73
2023/02/28 00:20:38;;;;;;;4.95;1.88;;;0.30;75.80;;;;;;4975619;28;92723;-72
2023/02/28 00:23:04;;;;;;;4.20;1.52;;;0.20;76.00;;;;;;4979143;28;93235;-73
2023/02/28 00:25:30;;;;;;;5.38;2.03;;;0.20;76.00;;;;;;4968251;28;93207;-73
2023/02/28 00:27:56;;;;;;;4.82;1.73;;;0.20;76.30;;;;;;4974167;28;92347;-74
2023/02/28 00:30:23;;;;;;;4.38;2.10;;;0.20;76.20;;;;;;4974477;28;92650;-74
2023/02/28 00:32:50;;;;;;;4.05;1.80;;;0.10;76.10;;;;;;4975695;28;94122;-73
2023/02/28 00:35:16;;;;;;;7.22;1.73;;;0.10;76.10;;;;;;4977568;28;93819;-73
2023/02/28 00:37:42;;;;;;;4.95;1.60;;;0.10;76.10;;;;;;4977890;28;92404;-73
2023/02/28 00:40:09;;;;;;;5.05;1.95;;;0.10;75.80;;;;;;4978058;28;92412;-72
2023/02/28 00:42:35;;;;;;;5.38;1.90;;;0.10;76.10;;;;;;4984700;28;92558;-71
2023/02/28 00:45:03;;;;;;;5.07;1.90;;;0.10;76.30;;;;;;4986832;28;93298;-71
2023/02/28 00:47:29;;;;;;;4.85;2.00;;;0.00;76.60;;;;;;4976908;28;92558;-71
2023/02/28 00:49:54;;;;;;;4.47;1.70;;;0.00;76.60;;;;;;4977309;28;92000;-73
2023/02/28 00:52:21;;;;;;;5.95;2.38;;;0.00;76.80;;;;;;4980780;28;92872;-72
2023/02/28 00:54:46;;;;;;;6.20;2.17;;;0.00;77.60;;;;;;4976482;28;92796;-72
2023/02/28 00:57:12;;;;;;;5.50;2.00;;;0.00;77.80;;;;;;4979314;28;93370;-72
2023/02/28 00:59:38;;;;;;;5.10;1.90;;;-0.10;77.90;;;;;;4986205;28;92616;-72
2023/02/28 01:02:03;;;;;;;5.78;1.92;;;-0.10;77.90;;;;;;4981631;28;93873;-72
2023/02/28 01:04:29;;;;;;;5.30;2.22;;;-0.20;77.80;;;;;;4992694;28;93039;-72
2023/02/28 01:06:55;;;;;;;5.97;1.70;;;-0.10;78.10;;;;;;4982523;28;92043;-70
2023/02/28 01:09:20;;;;;;;5.82;2.17;;;-0.20;78.10;;;;;;4973286;28;92627;-70
2023/02/28 01:11:46;;;;;;;6.85;2.20;;;-0.20;77.80;;;;;;4984996;28;93272;-74
2023/02/28 01:14:14;;;;;;;6.97;2.03;;;-0.20;77.70;;;;;;4982686;28;92019;-74
2023/02/28 01:16:40;;;;;;;6.88;2.30;;;-0.20;77.80;;;;;;4988764;28;92426;-73
2023/02/28 01:19:06;;;;;;;5.30;2.05;;;-0.30;78.40;;;;;;4975748;28;92611;-73
2023/02/28 01:21:31;;;;;;;5.32;2.13;;;-0.30;78.20;;;;;;4974455;28;94013;-73
2023/02/28 01:23:58;;;;;;;5.93;2.03;;;-0.30;78.40;;;;;;4976362;28;94676;-72
2023/02/28 01:26:24;;;;;;;7.00;2.42;;;-0.30;78.50;;;;;;4975960;28;93740;-72
2023/02/28 01:28:52;;;;;;;5.63;1.98;;;-0.30;79.20;;;;;;4975731;28;92545;-74
2023/02/28 01:31:19;;;;;;;6.57;2.20;;;-0.40;78.70;;;;;;4978332;28;94624;-73
2023/02/28 01:33:45;;;;;;;5.78;2.22;;;-0.40;78.70;;;;;;4977384;28;93301;-73
2023/02/28 01:36:16;;;;;;;6.35;2.42;;;-0.40;78.70;;;;;;4977606;28;92617;-74
2023/02/28 01:38:42;;;;;;;6.50;2.00;;;-0.40;78.90;;;;;;4974808;28;91769;-73
2023/02/28 01:41:12;;;;;;;6.20;2.33;;;-0.40;79.10;;;;;;4980627;28;93200;-73
2023/02/28 01:43:44;;;;;;;5.72;2.20;;;-0.50;79.10;;;;;;4976717;28;93230;-72
2023/02/28 01:46:10;;;;;;;5.53;2.30;;;-0.50;79.50;;;;;;4976632;28;93475;-72
2023/02/28 01:48:47;;;;;;;6.15;2.30;;;-0.50;79.10;;;;;;4977356;28;92684;-74
2023/02/28 01:51:26;;;;;;;5.13;1.90;;;-0.50;79.00;;;;;;4966447;28;92677;-74
2023/02/28 01:54:05;;;;;;;7.22;2.20;;;-0.50;78.60;;;;;;4977161;28;92863;-73
2023/02/28 01:56:35;;;;;;;6.07;2.45;;;-0.50;78.80;;;;;;4977491;28;92570;-73
2023/02/28 01:59:02;;;;;;;5.13;2.00;;;-0.50;79.00;;;;;;4974625;28;93703;-71
2023/02/28 02:01:30;;;;;;;6.43;2.00;;;-0.60;79.00;;;;;;4977573;28;93140;-71
2023/02/28 02:04:00;;;;;;;5.80;2.42;;;-0.60;79.30;;;;;;4977184;28;93397;-71
2023/02/28 02:06:34;;;;;;;4.93;2.15;;;-0.60;79.10;;;;;;4973380;28;93484;-71
2023/02/28 02:09:00;;;;;;;8.23;2.30;;;-0.60;78.80;;;;;;4967161;28;92616;-70
2023/02/28 02:11:29;;;;;;;6.97;2.17;;;-0.60;79.20;;;;;;4976879;28;93534;-70
2023/02/28 02:14:09;;;;;;;5.05;2.10;;;-0.60;79.60;;;;;;4970527;28;93775;-72
2023/02/28 02:16:52;;;;;;;6.35;2.40;;;-0.60;79.60;;;;;;4994250;28;92506;-70
2023/02/28 02:19:54;;;;;;;5.97;2.08;;;-0.60;79.90;;;;;;4981108;28;93039;-72
2023/02/28 02:22:39;;;;;;;5.68;2.28;;;-0.70;80.00;;;;;;4981708;28;92956;-71
2023/02/28 02:25:10;;;;;;;7.07;2.35;;;-0.70;80.00;;;;;;4964473;28;94681;-72
2023/02/28 02:28:17;;;;;;;5.10;2.38;;;-0.70;80.00;;;;;;4975958;28;92121;-72
2023/02/28 02:31:24;;;;;;;4.97;2.22;;;-0.70;79.60;;;;;;4967917;28;91754;-72
2023/02/28 02:34:27;;;;;;;6.25;2.28;;;-0.70;80.00;;;;;;4965771;28;93221;-73
2023/02/28 02:37:15;;;;;;;6.43;2.30;;;-0.70;80.10;;;;;;4974280;28;93094;-71
2023/02/28 02:39:54;;;;;;;6.65;2.30;;;-0.70;79.70;;;;;;4974957;28;93422;-73
2023/02/28 02:42:39;;;;;;;5.97;2.15;;;-0.70;79.80;;;;;;4978765;28;92412;-73
2023/02/28 02:45:21;;;;;;;8.23;2.58;;;-0.70;79.80;;;;;;4977875;28;93572;-71
2023/02/28 02:47:48;;;;;;;5.85;2.72;;;-0.70;79.50;;;;;;4974886;28;92629;-71
2023/02/28 02:50:29;;;;;;;5.85;2.40;;;-0.70;79.60;;;;;;4971129;28;93655;-71
2023/02/28 02:52:59;;;;;;;5.40;2.40;;;-0.60;79.70;;;;;;4980148;28;92543;-71
2023/02/28 02:55:26;;;;;;;7.07;2.35;;;-0.50;79.50;;;;;;4974953;28;93512;-72
2023/02/28 02:58:01;;;;;;;6.47;2.80;;;-0.50;79.30;;;;;;4975000;28;93784;-72
2023/02/28 03:00:34;;;;;;;6.30;2.53;;;-0.50;79.30;;;;;;4979961;28;92935;-72
2023/02/28 03:03:01;;;;;;;6.70;2.40;;;-0.50;79.30;;;;;;4974559;28;92439;-71
2023/02/28 03:05:32;;;;;;;5.70;2.50;;;-0.40;79.20;;;;;;4973297;28;94076;-72
2023/02/28 03:07:58;;;;;;;5.93;2.25;;;-0.40;79.00;;;;;;4975055;28;93752;-70
2023/02/28 03:10:36;;;;;;;5.78;2.25;;;-0.30;79.00;;;;;;4974842;28;92477;-74
2023/02/28 03:13:19;;;;;;;5.82;2.38;;;-0.30;78.90;;;;;;4975165;28;92427;-71
2023/02/28 03:16:07;;;;;;;5.13;2.25;;;-0.20;78.80;;;;;;4969721;28;93165;-72
2023/02/28 03:18:38;;;;;;;5.47;2.33;;;-0.20;78.30;;;;;;4975112;28;92863;-73
2023/02/28 03:21:21;;;;;;;5.75;2.60;;;-0.10;78.30;;;;;;4975916;28;92490;-73
2023/02/28 03:24:08;;;;;;;5.63;2.28;;;-0.20;78.40;;;;;;4981595;28;91779;-73
2023/02/28 03:26:42;;;;;;;6.60;2.58;;;-0.20;78.70;;;;;;4974641;28;92776;-72
2023/02/28 03:29:27;;;;;;;5.18;2.35;;;-0.10;78.50;;;;;;4973461;28;93321;-74
2023/02/28 03:32:14;;;;;;;7.15;2.40;;;-0.10;78.20;;;;;;4964837;28;93194;-72
2023/02/28 03:34:46;;;;;;;5.88;2.45;;;0.00;78.40;;;;;;4973879;28;94007;-72
2023/02/28 03:37:18;;;;;;;6.32;2.22;;;0.10;79.00;;;;;;4981154;28;93255;-72
2023/02/28 03:40:06;;;;;;;5.88;2.30;;;0.10;78.00;;;;;;4977649;28;92404;-72
2023/02/28 03:42:36;;;;;;;5.40;2.30;;;0.10;77.70;;;;;;4982751;28;92442;-72
2023/02/28 03:45:08;;;;;;;5.10;2.20;;;0.20;77.80;;;;;;4964865;28;92379;-72
2023/02/28 03:47:43;;;;;;;6.10;2.38;;;0.20;77.60;;;;;;4980494;28;92698;-72
2023/02/28 03:50:20;;;;;;;4.68;2.38;;;0.30;77.50;;;;;;4965351;28;92361;-72
2023/02/28 03:53:32;;;;;;;5.35;2.40;;;0.40;77.50;;;;;;4980827;28;92113;-72
2023/02/28 03:56:12;;;;;;;5.28;2.33;;;0.40;76.60;;;;;;4975615;28;94271;-72
2023/02/28 03:59:01;;;;;;;5.20;2.10;;;0.40;76.80;;;;;;4982624;28;94203;-74
2023/02/28 04:01:38;;;;;;;5.53;2.45;;;0.40;77.70;;;;;;4981741;28;94043;-72
2023/02/28 04:04:04;;;;;;;5.38;2.53;;;0.50;76.80;;;;;;4973206;28;92627;-72
2023/02/28 04:06:32;;;;;;;6.45;2.45;;;0.40;76.70;;;;;;4973646;28;92433;-72
2023/02/28 04:08:58;;;;;;;7.53;2.78;;;0.50;77.10;;;;;;4967332;28;94335;-74
2023/02/28 04:11:33;;;;;;;7.50;3.15;;;0.50;77.00;;;;;;4972762;28;92659;-74
2023/02/28 04:13:58;;;;;;;5.40;2.20;;;0.60;77.20;;;;;;4979564;28;92632;-73
2023/02/28 04:16:24;;;;;;;6.18;2.60;;;0.70;77.20;;;;;;4973747;28;91883;-73
2023/02/28 04:18:50;;;;;;;6.00;2.53;;;0.70;76.40;;;;;;4971163;28;93750;-72
2023/02/28 04:21:15;;;;;;;7.05;2.17;;;0.70;76.00;;;;;;4975644;28;92441;-72
2023/02/28 04:23:41;;;;;;;4.22;2.28;;;0.70;75.80;;;;;;4972965;28;93962;-73
2023/02/28 04:26:07;;;;;;;5.25;2.17;;;0.70;76.10;;;;;;4979111;28;92544;-70
2023/02/28 04:28:33;;;;;;;5.15;2.50;;;0.60;76.30;;;;;;4977216;28;93645;-72
2023/02/28 04:31:04;;;;;;;5.88;2.45;;;0.60;76.40;;;;;;4974475;28;93350;-70
2023/02/28 04:33:31;;;;;;;7.43;2.40;;;0.70;76.40;;;;;;4971323;28;92475;-70
2023/02/28 04:36:08;;;;;;;5.18;2.33;;;0.70;76.20;;;;;;4975044;28;92602;-70
2023/02/28 04:38:38;;;;;;;5.32;2.30;;;0.80;76.50;;;;;;4962746;28;94330;-70
2023/02/28 04:41:04;;;;;;;6.03;2.35;;;0.80;75.50;;;;;;4968891;28;92782;-70
2023/02/28 04:43:30;;;;;;;6.15;2.50;;;0.80;75.40;;;;;;4971633;28;92452;-71
2023/02/28 04:45:59;;;;;;;7.90;3.00;;;0.80;75.60;;;;;;4963672;28;92951;-70
2023/02/28 04:48:27;;;;;;;6.85;2.78;;;0.80;75.90;;;;;;4966636;28;94203;-71
2023/02/28 04:50:53;;;;;;;7.05;3.03;;;0.80;75.20;;;;;;4970132;28;93484;-70
2023/02/28 04:53:19;;;;;;;7.25;2.70;;;0.80;75.20;;;;;;4981052;28;92470;-71
2023/02/28 04:55:45;;;;;;;6.60;2.33;;;0.80;74.90;;;;;;4971422;28;92769;-71
2023/02/28 04:58:14;;;;;;;6.93;2.60;;;0.80;75.30;;;;;;4983826;28;93686;-70
2023/02/28 05:00:39;;;;;;;7.35;2.95;;;0.80;75.10;;;;;;4973872;28;92945;-70
2023/02/28 05:03:05;;;;;;;6.35;2.80;;;0.80;75.40;;;;;;4970477;28;92488;-72
2023/02/28 05:05:31;;;;;;;5.57;2.63;;;0.70;74.90;;;;;;4987249;28;91785;-71
2023/02/28 05:07:57;;;;;;;7.03;2.97;;;0.60;75.30;;;;;;4976019;28;92586;-71
2023/02/28 05:10:22;;;;;;;5.97;2.58;;;0.60;75.30;;;;;;4967326;28;93505;-72
2023/02/28 05:12:49;;;;;;;7.07;2.75;;;0.60;75.00;;;;;;4969417;28;93360;-71
2023/02/28 05:15:16;;;;;;;7.47;2.85;;;0.50;75.10;;;;;;4969730;28;92274;-72
2023/02/28 05:17:41;;;;;;;6.72;2.70;;;0.50;75.60;;;;;;4973343;28;93210;-71
2023/02/28 05:20:10;;;;;;;5.68;2.70;;;0.50;75.60;;;;;;4975197;28;92352;-70
2023/02/28 05:22:44;;;;;;;5.35;2.35;;;0.40;75.90;;;;;;4974694;28;92102;-71
2023/02/28 05:25:17;;;;;;;4.65;2.20;;;0.40;75.90;;;;;;4984813;28;92893;-71
2023/02/28 05:27:43;;;;;;;4.75;2.38;;;0.50;76.00;;;;;;4980530;28;92746;-71
2023/02/28 05:30:12;;;;;;;5.60;2.45;;;0.50;76.30;;;;;;4976661;28;92926;-69
2023/02/28 05:32:42;;;;;;;7.32;2.63;;;0.50;75.90;;;;;;4968469;28;93105;-70
2023/02/28 05:35:09;;;;;;;7.35;2.90;;;0.40;76.20;;;;;;4979850;28;92207;-72
2023/02/28 05:37:35;;;;;;;7.07;2.78;;;0.40;76.80;;;;;;4975707;28;94134;-70
2023/02/28 05:40:05;;;;;;;7.68;2.75;;;0.40;76.20;;;;;;4973784;28;94018;-70
2023/02/28 05:42:31;;;;;;;7.80;3.15;;;0.50;76.30;;;;;;4971382;28;92220;-71
2023/02/28 05:45:00;;;;;;;5.82;2.55;;;0.50;76.30;;;;;;4976141;28;92902;-71
2023/02/28 05:47:26;;;;;;;5.72;2.80;;;0.60;75.80;;;;;;4966578;28;93724;-70
2023/02/28 05:49:51;;;;;;;6.55;2.65;;;0.60;76.00;;;;;;4970324;28;93285;-70
2023/02/28 05:52:17;;;;;;;6.78;2.45;;;0.60;75.60;;;;;;4967312;28;94126;-70
2023/02/28 05:54:43;;;;;;;5.88;2.75;;;0.60;75.80;;;;;;4971493;28;92773;-70
2023/02/28 05:57:09;;;;;;;7.20;2.63;;;0.60;75.80;;;;;;4967434;28;92692;-70
2023/02/28 05:59:34;;;;;;;6.60;2.72;;;0.50;75.30;;;;;;4966640;28;92371;-70
2023/02/28 06:02:00;;;;;;;5.60;2.63;;;0.50;75.20;;;;;;4972438;28;93895;-70
2023/02/28 06:04:26;;;;;;;5.55;2.72;;;0.50;75.00;;;;;;4968843;28;94130;-71
2023/02/28 06:06:52;;;;;;;6.13;2.53;;;0.50;74.80;;;;;;4950259;28;93767;-71
2023/02/28 06:09:18;;;;;;;5.32;2.50;;;0.50;75.10;;;;;;4948501;28;94144;-71
2023/02/28 06:11:44;;;;;;;7.15;2.60;;;0.50;74.80;;;;;;4953366;28;93177;-70
2023/02/28 06:14:18;;;;;;;5.93;2.50;;;0.40;74.80;;;;;;4960149;28;93912;-73
2023/02/28 06:16:44;;;;;;;8.70;2.80;;;0.50;75.20;;;;;;4968398;28;93343;-70
2023/02/28 06:19:10;;;;;;;8.07;3.10;;;0.40;74.40;;;;;;4963839;28;91823;-72
2023/02/28 06:21:36;;;;;;;6.13;2.95;;;0.40;74.90;;;;;;4962889;28;93381;-72
2023/02/28 06:24:03;;;;;;;8.80;3.15;;;0.40;74.60;;;;;;4969621;28;93144;-70
2023/02/28 06:26:29;;;;;;;7.55;3.10;;;0.30;74.70;;;;;;4990484;28;95866;-70
2023/02/28 06:28:55;;;;;;;10.63;3.15;;;0.10;75.20;;;;;;4986981;28;95373;-71
2023/02/28 06:31:21;;;;;;;7.63;3.03;;;0.00;76.00;;;;;;4975481;28;92551;-70
2023/02/28 06:33:47;;;;;;;8.93;3.25;;;0.00;76.50;;;;;;4982354;28;93633;-70
2023/02/28 06:36:15;;;;;;;7.78;2.70;;;0.00;76.50;;;;;;4984167;28;93652;-70
2023/02/28 06:38:42;;;;;;;7.15;2.83;;;0.20;75.80;;;;;;4991960;28;92786;-71
2023/02/28 06:41:08;;;;;;;6.07;2.95;;;0.30;75.80;;;;;;4994255;28;92627;-72
2023/02/28 06:43:41;;;;;;;5.75;2.67;;;0.40;75.20;;;;;;4977933;28;91647;-70
2023/02/28 06:46:10;;;;;;;9.98;3.10;;;0.50;74.60;;;;;;4976014;28;93903;-70
2023/02/28 06:48:36;;;;;;;7.72;3.35;;;0.50;75.00;;;;;;4979348;28;92828;-71
2023/02/28 06:51:11;;;;;;;7.38;2.95;;;0.60;74.80;;;;;;4996055;28;93365;-72
2023/02/28 06:53:37;;;;;;;6.03;2.72;;;0.60;74.80;;;;;;4975338;28;92343;-70
2023/02/28 06:56:08;;;;;;;7.47;2.95;;;0.60;74.40;;;;;;4975640;28;93208;-71
2023/02/28 06:58:34;;;;;;;8.98;3.50;;;0.70;74.20;;;;;;4979611;28;93266;-72
2023/02/28 07:00:59;;;;;;;7.20;3.03;;;0.70;74.10;;;;;;4975582;28;92531;-72
2023/02/28 07:03:25;;;;;;;8.13;2.80;;;0.80;74.00;;;;;;4995986;28;92109;-71
2023/02/28 07:05:51;;;;;;;6.13;2.90;;;0.90;74.00;;;;;;4995515;28;92845;-71
2023/02/28 07:08:17;;;;;;;9.05;3.03;;;0.90;73.60;;;;;;4989414;28;92646;-71
2023/02/28 07:10:43;;;;;;;8.63;2.95;;;1.00;74.30;;;;;;4995970;28;92333;-72
2023/02/28 07:13:09;;;;;;;9.55;3.42;;;1.10;73.40;;;;;;4966662;28;92500;-71
2023/02/28 07:15:36;;;;;;;8.48;3.30;;;1.00;73.10;;;;;;4975569;28;94750;-72
2023/02/28 07:18:02;;;;;;;9.40;3.10;;;1.00;73.70;;;;;;4980084;28;93843;-72
2023/02/28 07:20:27;;;;;;;11.85;3.70;;;1.00;73.80;;;;;;4992187;28;92444;-71
2023/02/28 07:22:56;;;;;;;11.40;3.50;;;1.00;73.60;;;;;;4989931;28;92824;-72
2023/02/28 07:25:23;;;;;;;12.48;3.60;;;1.00;73.60;;;;;;4987416;28;92097;-72
2023/02/28 07:27:49;;;;;;;8.52;2.90;;;0.90;73.90;;;;;;4987881;28;92896;-72
2023/02/28 07:30:15;;;;;;;7.70;3.22;;;1.00;74.30;;;;;;4976302;28;92858;-72
2023/02/28 07:32:41;;;;;;;6.35;3.20;;;1.10;74.00;;;;;;4990958;28;91729;-72
2023/02/28 07:35:07;;;;;;;7.43;3.15;;;1.10;73.70;;;;;;4975341;28;92403;-71
2023/02/28 07:37:36;;;;;;;9.60;2.83;;;1.20;73.60;;;;;;4978504;28;92843;-71
2023/02/28 07:40:08;;;;;;;10.65;3.00;;;1.20;73.60;;;;;;4994042;28;93069;-71
2023/02/28 07:42:37;;;;;;;10.98;3.08;;;1.40;73.10;;;;;;4995594;28;92451;-72
2023/02/28 07:45:03;;;;;;;15.25;4.40;;;1.50;72.60;;;;;;4977635;28;92764;-72
2023/02/28 07:47:32;;;;;;;7.95;3.72;;;1.50;72.40;;;;;;4967654;28;94669;-72
2023/02/28 07:49:58;;;;;;;8.38;3.80;;;1.60;72.20;;;;;;4963088;28;92504;-72
2023/02/28 07:52:24;;;;;;;9.15;3.42;;;1.60;72.30;;;;;;4966185;28;93569;-72
2023/02/28 07:54:51;;;;;;;6.78;3.33;;;1.60;72.00;;;;;;4970642;28;92958;-72
2023/02/28 07:57:16;;;;;;;7.03;3.40;;;1.70;71.90;;;;;;4962109;28;92966;-72
2023/02/28 07:59:42;;;;;;;7.05;2.97;;;1.70;72.60;;;;;;4974505;28;92158;-70
2023/02/28 08:02:16;;;;;;;9.98;3.47;;;1.80;71.70;;;;;;4972481;28;93365;-70
2023/02/28 08:04:41;;;;;;;9.85;3.47;;;1.90;71.70;;;;;;4980898;28;94434;-70
2023/02/28 08:07:07;;;;;;;8.80;3.35;;;2.00;70.90;;;;;;4981273;28;94434;-73
2023/02/28 08:09:34;;;;;;;9.63;3.50;;;2.10;70.60;;;;;;4989214;28;92736;-70
2023/02/28 08:11:59;;;;;;;9.35;3.45;;;2.00;70.80;;;;;;4995234;28;92261;-70
2023/02/28 08:14:25;;;;;;;5.93;3.00;;;2.20;70.80;;;;;;4994901;28;93096;-70
2023/02/28 08:16:51;;;;;;;6.68;3.28;;;2.30;70.20;;;;;;4981568;28;92618;-73
2023/02/28 08:19:16;;;;;;;7.95;2.85;;;2.40;69.80;;;;;;4970855;28;92277;-70
2023/02/28 08:21:42;;;;;;;8.82;3.50;;;2.60;69.50;;;;;;4971587;28;93013;-70
2023/02/28 08:24:08;;;;;;;6.68;3.40;;;2.70;68.70;;;;;;4976312;28;92731;-70
2023/02/28 08:26:33;;;;;;;8.85;3.40;;;2.90;69.10;;;;;;4973295;28;92743;-70
2023/02/28 08:28:59;;;;;;;8.10;3.65;;;2.90;69.00;;;;;;4973473;28;93443;-70
2023/02/28 08:31:25;;;;;;;6.47;3.40;;;2.90;68.80;;;;;;4972011;28;92616;-71
2023/02/28 08:33:52;;;;;;;9.65;3.50;;;3.00;69.00;;;;;;4964705;28;92890;-70
2023/02/28 08:36:20;;;;;;;7.03;3.10;;;3.10;68.20;;;;;;4969336;28;92184;-70
2023/02/28 08:38:45;;;;;;;9.30;3.80;;;3.20;68.10;;;;;;4960631;28;93707;-71
2023/02/28 08:41:12;;;;;;;6.30;3.53;;;3.30;68.60;;;;;;4969829;28;93449;-72
2023/02/28 08:43:38;;;;;;;7.13;3.55;;;3.30;67.80;;;;;;4967569;28;93064;-70
2023/02/28 08:46:05;;;;;;;8.52;3.38;;;3.40;67.90;;;;;;4974756;28;92988;-71
2023/02/28 08:48:33;;;;;;;5.53;3.03;;;3.50;67.90;;;;;;4972953;28;92459;-71
2023/02/28 08:51:04;;;;;;;12.07;3.92;;;3.60;67.50;;;;;;4968047;28;94272;-71
2023/02/28 08:53:30;;;;;;;11.07;3.60;;;3.80;66.70;;;;;;4972500;28;94793;-71
2023/02/28 08:55:59;;;;;;;7.85;3.65;;;3.90;66.30;;;;;;4975027;28;93434;-72
2023/02/28 08:58:25;;;;;;;7.47;3.35;;;4.10;65.70;;;;;;4968898;28;92769;-72
2023/02/28 09:00:51;;;;;;;8.20;3.13;;;4.20;65.30;;;;;;4981594;28;92930;-72
2023/02/28 09:03:17;;;;;;;7.78;3.30;;;4.20;64.80;;;;;;4982402;28;93240;-72
2023/02/28 09:05:53;;;;;;;6.20;2.95;;;4.40;66.10;;;;;;4975792;28;92823;-71
2023/02/28 09:08:19;;;;;;;7.25;3.30;;;4.50;64.50;;;;;;4968293;28;92964;-72
2023/02/28 09:10:44;;;;;;;9.25;3.67;;;4.70;64.80;;;;;;4974906;28;91818;-72
2023/02/28 09:13:10;;;;;;;8.45;3.33;;;5.00;64.40;;;;;;4964775;28;93190;-72
2023/02/28 09:15:38;;;;;;;7.32;3.60;;;5.20;64.00;;;;;;4966172;28;94415;-72
2023/02/28 09:18:03;;;;;;;7.45;3.28;;;5.50;63.50;;;;;;4964613;28;93428;-72
2023/02/28 09:20:29;;;;;;;8.88;3.60;;;5.70;63.50;;;;;;4967772;28;92483;-72
2023/02/28 09:22:55;;;;;;;8.07;3.97;;;5.70;63.90;;;;;;4965390;28;93321;-72
2023/02/28 09:25:20;;;;;;;8.88;3.72;;;5.70;62.40;;;;;;4970499;28;92739;-72
2023/02/28 09:27:46;;;;;;;8.63;3.63;;;5.90;60.70;;;;;;4976003;28;92407;-72
2023/02/28 09:30:13;;;;;;;20.02;4.28;;;6.00;60.20;;;;;;4974330;28;92477;-72
2023/02/28 09:32:38;;;;;;;9.75;3.63;;;6.10;61.00;;;;;;4982014;28;93115;-72
2023/02/28 09:35:05;;;;;;;8.48;3.25;;;6.50;62.00;;;;;;4975399;28;91768;-72
2023/02/28 09:37:31;;;;;;;6.40;3.47;;;6.90;60.00;;;;;;4966862;28;92512;-72
2023/02/28 09:39:57;;;;;;;7.40;3.20;;;7.20;58.30;;;;;;4968866;28;92379;-72
2023/02/28 09:42:31;;;;;;;9.02;3.40;;;7.30;58.20;;;;;;4966840;28;94178;-72
2023/02/28 09:45:00;;;;;;;11.90;3.95;;;7.40;57.30;;;;;;4973663;28;94555;-72
2023/02/28 09:47:39;;;;;;;6.30;3.70;;;7.80;56.80;;;;;;4971366;28;92350;-72
2023/02/28 09:50:26;;;;;;;6.88;3.80;;;8.20;56.10;;;;;;4974551;28;94360;-70
2023/02/28 09:52:53;;;;;;;8.02;4.15;;;8.80;57.80;;;;;;4967880;28;93253;-72
2023/02/28 09:55:20;;;;;;;8.20;4.35;;;9.70;52.50;;;;;;4970141;28;92948;-72
2023/02/28 09:57:46;;;;;;;9.82;4.43;;;10.10;52.40;;;;;;4973051;28;92419;-72
2023/02/28 10:00:32;;;;;;;6.70;4.07;;;11.00;53.00;;;;;;4976898;28;91697;-72
2023/02/28 10:02:58;;;;;;;6.22;3.28;;;11.70;50.90;;;;;;4969342;28;92772;-72
2023/02/28 10:05:53;;;;;;;6.53;3.95;;;12.70;50.30;;;;;;4974988;28;94859;-72
2023/02/28 10:08:28;;;;;;;8.80;4.30;;;12.60;47.60;;;;;;4969744;28;93484;-72
2023/02/28 10:11:05;;;;;;;7.13;4.18;;;11.60;47.10;;;;;;4976586;28;92737;-72
2023/02/28 10:14:01;;;;;;;9.65;3.88;;;10.80;50.60;;;;;;4971302;28;92580;-71
2023/02/28 10:16:51;;;;;;;7.45;3.65;;;10.50;50.00;;;;;;4966409;28;93557;-72
2023/02/28 10:19:40;;;;;;;9.35;4.47;;;10.10;53.80;;;;;;4968418;28;92512;-72
2023/02/28 10:22:21;;;;;;;6.20;3.63;;;9.70;52.60;;;;;;4965777;28;92692;-72
2023/02/28 10:24:52;;;;;;;8.00;3.65;;;10.50;52.70;;;;;;4973124;28;93080;-72
2023/02/28 10:27:24;;;;;;;7.05;4.53;;;11.90;51.30;;;;;;4967936;28;93466;-72
2023/02/28 10:29:52;;;;;;;8.95;4.60;;;14.50;45.70;;;;;;4970472;28;93909;-73
2023/02/28 10:32:21;;;;;;;7.95;4.97;;;16.80;41.30;;;;;;4968063;28;92526;-73
2023/02/28 10:35:09;;;;;;;7.85;4.93;;;18.70;38.70;;;;;;4967271;28;93978;-73
2023/02/28 10:37:39;;;;;;;8.55;5.40;;;20.40;36.60;;;;;;4957313;28;94451;-74
2023/02/28 10:40:24;;;;;;;6.90;5.10;;;20.70;34.90;;;;;;4968714;28;93339;-73
2023/02/28 10:42:56;;;;;;;6.15;4.60;;;20.30;35.80;;;;;;4963066;28;92420;-72
2023/02/28 10:45:23;;;;;;;8.07;4.47;;;18.90;36.20;;;;;;4964478;28;93449;-73
2023/02/28 10:48:00;;;;;;;8.25;4.70;;;17.80;37.80;;;;;;4962655;28;95839;-73
2023/02/28 10:50:50;;;;;;;7.07;4.45;;;15.80;39.00;;;;;;4967880;28;92868;-72
2023/02/28 10:53:23;;;;;;;7.72;4.65;;;14.30;41.50;;;;;;4961395;28;93576;-72
2023/02/28 10:56:02;;;;;;;5.88;4.00;;;13.20;44.00;;;;;;4963524;28;94371;-72
2023/02/28 10:58:59;;;;;;;8.45;5.22;;;12.10;43.90;;;;;;4968957;28;93455;-71
2023/02/28 11:01:44;;;;;;;6.78;4.18;;;11.30;46.70;;;;;;4963774;28;95081;-72
2023/02/28 11:04:35;;;;;;;7.90;4.18;;;10.30;48.70;;;;;;4966033;28;92579;-72
2023/02/28 11:07:24;;;;;;;6.35;3.75;;;9.40;50.20;;;;;;4965077;28;92841;-72
2023/02/28 11:09:52;;;;;;;7.15;4.18;;;9.00;52.60;;;;;;4964523;28;92575;-72
2023/02/28 11:12:29;;;;;;;6.65;3.72;;;8.60;52.50;;;;;;4965984;28;94279;-73
2023/02/28 11:15:18;;;;;;;7.53;4.22;;;8.50;53.10;;;;;;4966899;28;92528;-72
2023/02/28 11:17:44;;;;;;;8.52;4.38;;;8.50;53.60;;;;;;4957177;28;93683;-71
2023/02/28 11:20:20;;;;;;;8.95;4.32;;;8.40;53.90;;;;;;4962075;28;92988;-71
2023/02/28 11:22:47;;;;;;;8.55;4.28;;;8.10;54.60;;;;;;4965647;28;92566;-70
2023/02/28 11:25:24;;;;;;;10.25;4.85;;;7.80;55.40;;;;;;4969806;28;92593;-71
2023/02/28 11:27:52;;;;;;;8.52;4.70;;;7.60;55.30;;;;;;4962318;28;93555;-71
2023/02/28 11:30:27;;;;;;;7.07;3.92;;;7.60;55.90;;;;;;4963703;28;93828;-71
2023/02/28 11:32:53;;;;;;;8.48;4.10;;;7.50;55.50;;;;;;4966448;28;92313;-72
2023/02/28 11:35:23;;;;;;;7.72;4.15;;;7.50;55.30;;;;;;4967586;28;94721;-70
2023/02/28 11:37:49;;;;;;;9.40;4.97;;;7.30;56.30;;;;;;4967400;28;93774;-72
2023/02/28 11:40:44;;;;;;;8.68;4.20;;;7.30;56.60;;;;;;4966923;28;94545;-72
2023/02/28 11:43:37;;;;;;;9.93;4.10;;;7.00;57.80;;;;;;4966024;28;93063;-71
2023/02/28 11:46:27;;;;;;;8.13;4.18;;;6.90;56.50;;;;;;4966259;28;93607;-71
2023/02/28 11:49:13;;;;;;;10.95;4.57;;;6.70;56.60;;;;;;4967383;28;93826;-72
2023/02/28 11:52:09;;;;;;;9.48;4.13;;;6.90;58.90;;;;;;4969412;28;92563;-73
2023/02/28 11:54:50;;;;;;;6.47;3.80;;;6.90;58.30;;;;;;4964240;28;94799;-72
2023/02/28 11:57:32;;;;;;;13.02;5.18;;;6.90;58.00;;;;;;4970684;28;92627;-72
2023/02/28 12:00:15;;;;;;;8.40;3.92;;;6.90;59.20;;;;;;4964813;28;95172;-72
2023/02/28 12:03:17;;;;;;;7.70;4.30;;;6.90;58.20;;;;;;4965801;28;93990;-72
2023/02/28 12:05:57;;;;;;;6.28;3.72;;;6.80;57.80;;;;;;4959577;28;92917;-72
2023/02/28 12:08:44;;;;;;;8.32;4.22;;;6.70;56.90;;;;;;4974384;28;93022;-72
2023/02/28 12:11:12;;;;;;;8.65;3.85;;;6.40;58.70;;;;;;4966826;28;93091;-72
2023/02/28 12:13:58;;;;;;;9.10;4.15;;;6.30;59.00;;;;;;4969011;28;92908;-72
2023/02/28 12:16:33;;;;;;;7.40;3.90;;;6.40;59.80;;;;;;4972148;28;92570;-72
2023/02/28 12:19:11;;;;;;;9.50;3.70;;;6.40;58.80;;;;;;4961508;28;92788;-71
2023/02/28 12:22:01;;;;;;;7.05;3.53;;;6.40;58.60;;;;;;4959241;28;95084;-72
2023/02/28 12:24:29;;;;;;;8.73;3.80;;;6.50;58.80;;;;;;4963323;28;94022;-72
2023/02/28 12:27:00;;;;;;;6.80;3.92;;;6.30;58.80;;;;;;4963160;28;93581;-73
2023/02/28 12:29:29;;;;;;;8.68;3.70;;;6.30;60.10;;;;;;4969569;28;92544;-72
2023/02/28 12:32:18;;;;;;;8.35;4.38;;;6.20;60.00;;;;;;4961772;28;93336;-72
2023/02/28 12:35:04;;;;;;;9.07;4.22;;;6.20;61.20;;;;;;4982413;28;95939;-71
2023/02/28 12:37:45;;;;;;;12.40;4.35;;;6.30;59.50;;;;;;4969852;28;92485;-72
2023/02/28 12:40:18;;;;;;;7.57;3.75;;;6.30;60.80;;;;;;4976328;28;93576;-72
2023/02/28 12:42:55;;;;;;;8.85;4.20;;;6.30;59.80;;;;;;4964825;28;94009;-70
2023/02/28 12:45:25;;;;;;;7.07;4.05;;;6.30;61.30;;;;;;4967060;28;93363;-72
2023/02/28 12:47:58;;;;;;;8.48;4.15;;;6.20;60.60;;;;;;4967372;28;93546;-72
2023/02/28 12:50:25;;;;;;;9.18;4.55;;;6.40;61.70;;;;;;4968167;28;92171;-72
2023/02/28 12:53:06;;;;;;;8.80;4.05;;;6.40;61.90;;;;;;4970122;28;92660;-72
2023/02/28 12:55:51;;;;;;;8.88;3.95;;;6.30;60.70;;;;;;4967312;28;93492;-72
2023/02/28 12:58:37;;;;;;;7.75;4.38;;;6.40;61.90;;;;;;4965889;28;93909;-71
2023/02/28 13:01:18;;;;;;;7.82;4.30;;;6.20;60.50;;;;;;4971865;28;94332;-69
2023/02/28 13:03:47;;;;;;;8.35;4.13;;;6.10;60.80;;;;;;4984306;28;92592;-73
2023/02/28 13:06:33;;;;;;;7.68;4.15;;;6.10;62.70;;;;;;4966012;28;91981;-72
2023/02/28 13:09:08;;;;;;;7.68;3.92;;;6.00;61.40;;;;;;4968171;28;92963;-70
2023/02/28 13:11:41;;;;;;;8.48;4.40;;;6.00;61.80;;;;;;4971619;28;93067;-69
2023/02/28 13:14:30;;;;;;;8.40;4.20;;;6.10;61.70;;;;;;4967428;28;95440;-71
2023/02/28 13:17:11;;;;;;;7.60;3.90;;;6.00;61.80;;;;;;4968941;28;94823;-72